メインページ
METAR-TAF:

METAR-TAF

空港 :

ホニアラ国際空港

ホニアラ, ガダルカナル島, ソロモン諸島

緯度: 09-25S, 経度: 160-03E, 海抜: 8m

現時点の気象観測

当レポートは16分前の10:00(UTC)に作成
東/南東の風 3kt
気温 24°C
湿度 94%
気圧 1014 hPa
視程10km以上
高度1500ftの雲はほとんどない
高度10000ftの雲は散在している

METAR: AGGH 181000Z 11003KT 9999 FEW015 SCT100 24/23 Q1014

時間: 21:16 (10:16 UTC)

予報

当レポートは5時間21分前の04:55(UTC)に作成
予報は18日の 06時(UTC)から 19日の 06時(UTC)まで有効
北/北東の風 14kt、最大20ktの突風を伴う
視程10km以上
高度1700ftの雲はほとんどない
高度2800ftの雲は散在している
高度10000ftの千切れ雲あり
弱いにわか雨
18日の 0900時(UTC)から
変向風 3kt
視程10km以上
高度1600ftの雲は散在している
確率 40%
間 INからTE UTC
視程: 1012m
高度1600ftの千切れ雲あり
高度1700ftの雲はほとんどない, 積乱雲.

TAF: AGGH 180455Z 1806/1906 02014G20KT 9999 -SHRA FEW017 SCT028 BKN100 FM180900 VRB03KT 9999 SCT016 PROB40 INTER 1806/1809 4000 TSSH BKN016 FEW017CB T 26 25 24 23 Q 1011 1013 1014 1012

4,000以上の空港の気象観測と天気予報(METAR報とTAF報)

利用可能な観測所は地図上に黄色い丸と赤い丸で示す。

丸の上にカーソルを重ねると観測所名を参照できる。

次にクリックすると気象観測と天気予報を参照できる。

マップの切り替え:黒色「×」印の緑ボタンをクリックして拡大、「-」印の緑ボタンをクリックして縮小、緑色の三角印をクリックして隣りの地図に切り替え


METAR-TAF: